sensor_id;sensor_type;location;lat;lon;timestamp;pressure;altitude;pressure_sealevel;temperature;humidity
61128;BME280;47013;42.664;23.242;2023-03-25T00:01:41;93759.34;;;9.00;74.93
61128;BME280;47013;42.664;23.242;2023-03-25T00:04:06;93761.28;;;8.96;75.37
61128;BME280;47013;42.664;23.242;2023-03-25T00:06:32;93764.44;;;8.91;75.46
61128;BME280;47013;42.664;23.242;2023-03-25T00:09:01;93769.47;;;8.89;76.16
61128;BME280;47013;42.664;23.242;2023-03-25T00:11:27;93763.72;;;8.86;76.06
61128;BME280;47013;42.664;23.242;2023-03-25T00:13:53;93761.00;;;8.83;76.61
61128;BME280;47013;42.664;23.242;2023-03-25T00:16:18;93761.78;;;8.83;76.46
61128;BME280;47013;42.664;23.242;2023-03-25T00:18:44;93749.41;;;8.86;75.87
61128;BME280;47013;42.664;23.242;2023-03-25T00:21:12;93743.22;;;8.89;75.99
61128;BME280;47013;42.664;23.242;2023-03-25T00:23:39;93739.75;;;8.89;76.45
61128;BME280;47013;42.664;23.242;2023-03-25T00:26:04;93740.91;;;8.88;76.41
61128;BME280;47013;42.664;23.242;2023-03-25T00:28:33;93738.97;;;8.88;75.82
61128;BME280;47013;42.664;23.242;2023-03-25T00:31:11;93738.66;;;8.79;76.27
61128;BME280;47013;42.664;23.242;2023-03-25T00:33:37;93737.06;;;8.81;76.22
61128;BME280;47013;42.664;23.242;2023-03-25T00:36:06;93730.91;;;8.81;75.80
61128;BME280;47013;42.664;23.242;2023-03-25T00:38:33;93741.69;;;8.84;75.80
61128;BME280;47013;42.664;23.242;2023-03-25T00:43:33;93730.97;;;8.70;76.42
61128;BME280;47013;42.664;23.242;2023-03-25T00:45:59;93739.53;;;8.65;77.07
61128;BME280;47013;42.664;23.242;2023-03-25T00:48:24;93734.88;;;8.66;77.25
61128;BME280;47013;42.664;23.242;2023-03-25T00:50:51;93731.84;;;8.60;77.11
61128;BME280;47013;42.664;23.242;2023-03-25T00:53:17;93734.91;;;8.62;76.70
61128;BME280;47013;42.664;23.242;2023-03-25T00:55:42;93731.84;;;8.60;76.48
61128;BME280;47013;42.664;23.242;2023-03-25T00:58:07;93723.34;;;8.62;76.77
61128;BME280;47013;42.664;23.242;2023-03-25T01:00:33;93719.88;;;8.61;76.74
61128;BME280;47013;42.664;23.242;2023-03-25T01:02:58;93720.66;;;8.62;76.44
61128;BME280;47013;42.664;23.242;2023-03-25T01:05:27;93711.41;;;8.55;76.71
61128;BME280;47013;42.664;23.242;2023-03-25T01:07:53;93720.69;;;8.54;77.31
61128;BME280;47013;42.664;23.242;2023-03-25T01:10:19;93713.75;;;8.53;77.58
61128;BME280;47013;42.664;23.242;2023-03-25T01:12:45;93701.75;;;8.54;77.14
61128;BME280;47013;42.664;23.242;2023-03-25T01:15:11;93706.00;;;8.55;76.57
61128;BME280;47013;42.664;23.242;2023-03-25T01:17:36;93701.00;;;8.54;76.72
61128;BME280;47013;42.664;23.242;2023-03-25T01:20:02;93701.75;;;8.54;76.62
61128;BME280;47013;42.664;23.242;2023-03-25T01:22:30;93698.28;;;8.54;76.33
61128;BME280;47013;42.664;23.242;2023-03-25T01:24:56;93687.13;;;8.52;76.49
61128;BME280;47013;42.664;23.242;2023-03-25T01:27:21;93684.06;;;8.50;76.26
61128;BME280;47013;42.664;23.242;2023-03-25T01:29:48;93693.38;;;8.42;76.72
61128;BME280;47013;42.664;23.242;2023-03-25T01:32:14;93688.69;;;8.46;76.60
61128;BME280;47013;42.664;23.242;2023-03-25T01:34:40;93682.53;;;8.49;76.41
61128;BME280;47013;42.664;23.242;2023-03-25T01:37:07;93673.63;;;8.52;76.33
61128;BME280;47013;42.664;23.242;2023-03-25T01:39:34;93670.47;;;8.57;76.54
61128;BME280;47013;42.664;23.242;2023-03-25T01:41:59;93669.31;;;8.58;75.67
61128;BME280;47013;42.664;23.242;2023-03-25T01:46:52;93669.09;;;8.38;76.96
61128;BME280;47013;42.664;23.242;2023-03-25T01:49:27;93672.88;;;8.44;76.77
61128;BME280;47013;42.664;23.242;2023-03-25T01:51:59;93671.34;;;8.47;76.62
61128;BME280;47013;42.664;23.242;2023-03-25T01:54:26;93672.13;;;8.44;76.68
61128;BME280;47013;42.664;23.242;2023-03-25T01:56:53;93664.00;;;8.47;76.85
61128;BME280;47013;42.664;23.242;2023-03-25T01:59:21;93668.97;;;8.52;76.58
61128;BME280;47013;42.664;23.242;2023-03-25T02:01:49;93660.91;;;8.49;76.57
61128;BME280;47013;42.664;23.242;2023-03-25T02:04:23;93665.56;;;8.45;76.39
61128;BME280;47013;42.664;23.242;2023-03-25T02:06:52;93657.84;;;8.43;76.77
61128;BME280;47013;42.664;23.242;2023-03-25T02:09:22;93671.75;;;8.42;76.77
61128;BME280;47013;42.664;23.242;2023-03-25T02:11:48;93667.53;;;8.41;77.09
61128;BME280;47013;42.664;23.242;2023-03-25T02:14:19;93652.16;;;8.34;76.82
61128;BME280;47013;42.664;23.242;2023-03-25T02:28:11;93652.13;;;8.31;77.51
61128;BME280;47013;42.664;23.242;2023-03-25T02:31:00;93650.22;;;8.27;77.15
61128;BME280;47013;42.664;23.242;2023-03-25T02:38:42;93652.66;;;8.11;77.43
61128;BME280;47013;42.664;23.242;2023-03-25T02:41:23;93648.84;;;8.02;78.21
61128;BME280;47013;42.664;23.242;2023-03-25T02:46:27;93646.88;;;8.06;77.87
61128;BME280;47013;42.664;23.242;2023-03-25T02:51:36;93638.03;;;8.05;78.34
61128;BME280;47013;42.664;23.242;2023-03-25T02:54:08;93641.88;;;8.08;78.40
61128;BME280;47013;42.664;23.242;2023-03-25T02:56:36;93645.00;;;8.03;78.83
61128;BME280;47013;42.664;23.242;2023-03-25T02:59:03;93645.00;;;8.03;78.28
61128;BME280;47013;42.664;23.242;2023-03-25T03:01:29;93643.06;;;8.03;78.62
61128;BME280;47013;42.664;23.242;2023-03-25T03:03:58;93639.59;;;8.03;78.64
61128;BME280;47013;42.664;23.242;2023-03-25T03:06:24;93641.56;;;7.98;78.65
61128;BME280;47013;42.664;23.242;2023-03-25T03:09:03;93631.56;;;7.95;78.96
61128;BME280;47013;42.664;23.242;2023-03-25T03:15:11;93630.38;;;7.93;78.54
61128;BME280;47013;42.664;23.242;2023-03-25T03:17:21;93640.47;;;7.85;79.43
61128;BME280;47013;42.664;23.242;2023-03-25T03:22:41;93636.22;;;7.88;79.65
61128;BME280;47013;42.664;23.242;2023-03-25T03:25:31;93643.53;;;7.87;79.70
61128;BME280;47013;42.664;23.242;2023-03-25T03:28:14;93647.41;;;7.86;79.59
61128;BME280;47013;42.664;23.242;2023-03-25T03:33:26;93641.66;;;7.84;79.22
61128;BME280;47013;42.664;23.242;2023-03-25T03:36:00;93646.41;;;7.52;80.16
61128;BME280;47013;42.664;23.242;2023-03-25T03:38:33;93644.09;;;7.57;80.86
61128;BME280;47013;42.664;23.242;2023-03-25T03:41:04;93649.47;;;7.61;80.13
61128;BME280;47013;42.664;23.242;2023-03-25T03:43:39;93646.34;;;7.66;80.21
61128;BME280;47013;42.664;23.242;2023-03-25T03:46:13;93640.56;;;7.67;79.90
61128;BME280;47013;42.664;23.242;2023-03-25T03:48:43;93653.28;;;7.67;79.09
61128;BME280;47013;42.664;23.242;2023-03-25T03:51:28;93653.31;;;7.63;79.56
61128;BME280;47013;42.664;23.242;2023-03-25T03:54:06;93641.38;;;7.61;78.94
61128;BME280;47013;42.664;23.242;2023-03-25T03:57:18;93648.31;;;7.62;79.15
61128;BME280;47013;42.664;23.242;2023-03-25T03:59:44;93649.84;;;7.63;79.37
61128;BME280;47013;42.664;23.242;2023-03-25T04:03:17;93649.44;;;7.64;79.37
61128;BME280;47013;42.664;23.242;2023-03-25T04:05:19;93642.88;;;7.69;79.29
61128;BME280;47013;42.664;23.242;2023-03-25T04:07:56;93639.41;;;7.72;78.54
61128;BME280;47013;42.664;23.242;2023-03-25T04:10:36;93640.59;;;7.64;78.77
61128;BME280;47013;42.664;23.242;2023-03-25T04:13:07;93640.97;;;7.66;78.53
61128;BME280;47013;42.664;23.242;2023-03-25T04:15:34;93640.97;;;7.66;78.53
61128;BME280;47013;42.664;23.242;2023-03-25T04:17:59;93638.66;;;7.64;78.36
61128;BME280;47013;42.664;23.242;2023-03-25T04:20:26;93634.78;;;7.65;77.85
61128;BME280;47013;42.664;23.242;2023-03-25T04:22:58;93627.84;;;7.64;78.82
61128;BME280;47013;42.664;23.242;2023-03-25T04:25:23;93631.69;;;7.67;78.82
61128;BME280;47013;42.664;23.242;2023-03-25T04:27:49;93635.16;;;7.67;78.90
61128;BME280;47013;42.664;23.242;2023-03-25T04:30:18;93629.75;;;7.67;79.29
61128;BME280;47013;42.664;23.242;2023-03-25T04:32:45;93636.38;;;7.59;79.54
61128;BME280;47013;42.664;23.242;2023-03-25T04:35:15;93643.28;;;7.64;78.99
61128;BME280;47013;42.664;23.242;2023-03-25T04:37:42;93646.75;;;7.64;79.27
61128;BME280;47013;42.664;23.242;2023-03-25T04:40:11;93650.97;;;7.65;78.98
61128;BME280;47013;42.664;23.242;2023-03-25T04:42:38;93644.81;;;7.65;79.07
61128;BME280;47013;42.664;23.242;2023-03-25T04:45:08;93647.13;;;7.70;79.20
61128;BME280;47013;42.664;23.242;2023-03-25T04:47:39;93652.13;;;7.72;79.92
61128;BME280;47013;42.664;23.242;2023-03-25T04:50:17;93652.84;;;7.76;79.15
61128;BME280;47013;42.664;23.242;2023-03-25T04:52:43;93644.78;;;7.72;79.33
61128;BME280;47013;42.664;23.242;2023-03-25T04:55:11;93657.84;;;7.84;79.58
61128;BME280;47013;42.664;23.242;2023-03-25T04:57:42;93662.78;;;7.93;79.17
61128;BME280;47013;42.664;23.242;2023-03-25T05:00:08;93653.97;;;7.85;79.36
61128;BME280;47013;42.664;23.242;2023-03-25T05:02:34;93651.59;;;7.98;78.60
61128;BME280;47013;42.664;23.242;2023-03-25T05:05:00;93648.41;;;8.10;78.71
61128;BME280;47013;42.664;23.242;2023-03-25T05:07:26;93652.97;;;8.24;78.51
61128;BME280;47013;42.664;23.242;2023-03-25T05:09:54;93651.38;;;8.26;77.87
61128;BME280;47013;42.664;23.242;2023-03-25T05:12:21;93654.78;;;8.41;77.46
61128;BME280;47013;42.664;23.242;2023-03-25T05:14:46;93651.56;;;8.57;76.44
61128;BME280;47013;42.664;23.242;2023-03-25T05:17:12;93652.19;;;8.72;76.03
61128;BME280;47013;42.664;23.242;2023-03-25T05:19:37;93645.13;;;8.85;75.69
61128;BME280;47013;42.664;23.242;2023-03-25T05:22:03;93648.84;;;9.02;74.62
61128;BME280;47013;42.664;23.242;2023-03-25T05:24:29;93653.75;;;9.10;74.81
61128;BME280;47013;42.664;23.242;2023-03-25T05:26:54;93657.94;;;9.19;75.36
61128;BME280;47013;42.664;23.242;2023-03-25T05:29:20;93655.84;;;9.33;75.21
61128;BME280;47013;42.664;23.242;2023-03-25T05:31:45;93650.66;;;9.46;73.97
61128;BME280;47013;42.664;23.242;2023-03-25T05:34:12;93643.13;;;9.61;71.94
61128;BME280;47013;42.664;23.242;2023-03-25T05:36:41;93649.59;;;9.70;71.34
61128;BME280;47013;42.664;23.242;2023-03-25T05:39:06;93646.28;;;9.86;70.34
61128;BME280;47013;42.664;23.242;2023-03-25T05:41:32;93654.97;;;10.01;69.95
61128;BME280;47013;42.664;23.242;2023-03-25T05:44:03;93660.19;;;10.15;69.43
61128;BME280;47013;42.664;23.242;2023-03-25T05:46:29;93660.13;;;10.22;67.71
61128;BME280;47013;42.664;23.242;2023-03-25T05:48:55;93664.16;;;10.38;67.17
61128;BME280;47013;42.664;23.242;2023-03-25T05:51:23;93665.44;;;10.56;66.41
61128;BME280;47013;42.664;23.242;2023-03-25T05:53:49;93662.53;;;10.67;65.16
61128;BME280;47013;42.664;23.242;2023-03-25T05:56:15;93663.13;;;10.78;64.66
61128;BME280;47013;42.664;23.242;2023-03-25T05:58:45;93661.72;;;10.93;63.66
61128;BME280;47013;42.664;23.242;2023-03-25T06:01:11;93655.66;;;11.09;62.98
61128;BME280;47013;42.664;23.242;2023-03-25T06:03:41;93657.38;;;11.19;61.83
61128;BME280;47013;42.664;23.242;2023-03-25T06:06:07;93658.09;;;11.23;60.89
61128;BME280;47013;42.664;23.242;2023-03-25T06:08:41;93655.03;;;11.21;60.16
61128;BME280;47013;42.664;23.242;2023-03-25T06:11:08;93650.38;;;11.42;60.33
61128;BME280;47013;42.664;23.242;2023-03-25T06:13:34;93650.06;;;11.60;60.41
61128;BME280;47013;42.664;23.242;2023-03-25T06:16:04;93650.66;;;11.67;60.58
61128;BME280;47013;42.664;23.242;2023-03-25T06:18:31;93643.47;;;11.57;59.40
61128;BME280;47013;42.664;23.242;2023-03-25T06:20:57;93638.56;;;11.72;59.86
61128;BME280;47013;42.664;23.242;2023-03-25T06:23:23;93645.22;;;11.67;59.57
61128;BME280;47013;42.664;23.242;2023-03-25T06:25:51;93641.75;;;11.67;59.01
61128;BME280;47013;42.664;23.242;2023-03-25T06:28:17;93652.69;;;11.83;59.42
61128;BME280;47013;42.664;23.242;2023-03-25T06:30:47;93646.13;;;12.00;59.57
61128;BME280;47013;42.664;23.242;2023-03-25T06:33:13;93644.34;;;12.10;58.68
61128;BME280;47013;42.664;23.242;2023-03-25T06:35:42;93646.94;;;11.97;59.31
61128;BME280;47013;42.664;23.242;2023-03-25T06:38:09;93648.00;;;12.03;58.91
61128;BME280;47013;42.664;23.242;2023-03-25T06:40:37;93648.03;;;12.20;59.44
61128;BME280;47013;42.664;23.242;2023-03-25T06:43:04;93655.41;;;12.19;59.05
61128;BME280;47013;42.664;23.242;2023-03-25T06:45:30;93653.66;;;12.29;59.76
61128;BME280;47013;42.664;23.242;2023-03-25T06:47:55;93656.13;;;12.39;58.97
61128;BME280;47013;42.664;23.242;2023-03-25T06:50:20;93662.94;;;12.48;59.40
61128;BME280;47013;42.664;23.242;2023-03-25T06:52:46;93659.97;;;12.42;59.45
61128;BME280;47013;42.664;23.242;2023-03-25T06:55:11;93666.34;;;12.68;59.53
61128;BME280;47013;42.664;23.242;2023-03-25T06:57:37;93669.25;;;12.77;59.15
61128;BME280;47013;42.664;23.242;2023-03-25T07:00:03;93673.75;;;12.67;59.91
61128;BME280;47013;42.664;23.242;2023-03-25T07:02:30;93671.44;;;12.82;59.47
61128;BME280;47013;42.664;23.242;2023-03-25T07:04:55;93669.91;;;12.97;59.04
61128;BME280;47013;42.664;23.242;2023-03-25T07:07:21;93678.75;;;13.18;58.62
61128;BME280;47013;42.664;23.242;2023-03-25T07:09:50;93661.38;;;13.28;58.26
61128;BME280;47013;42.664;23.242;2023-03-25T07:12:15;93667.88;;;13.47;58.46
61128;BME280;47013;42.664;23.242;2023-03-25T07:14:41;93664.59;;;13.68;57.40
61128;BME280;47013;42.664;23.242;2023-03-25T07:17:08;93660.34;;;13.80;57.48
61128;BME280;47013;42.664;23.242;2023-03-25T07:19:33;93662.41;;;13.76;57.43
61128;BME280;47013;42.664;23.242;2023-03-25T07:21:59;93665.09;;;14.05;56.46
61128;BME280;47013;42.664;23.242;2023-03-25T07:24:24;93660.66;;;14.24;55.15
61128;BME280;47013;42.664;23.242;2023-03-25T07:26:50;93654.22;;;14.43;55.12
61128;BME280;47013;42.664;23.242;2023-03-25T07:29:15;93651.84;;;14.45;54.17
61128;BME280;47013;42.664;23.242;2023-03-25T07:31:41;93660.59;;;14.65;54.30
61128;BME280;47013;42.664;23.242;2023-03-25T07:34:06;93653.16;;;14.53;52.95
61128;BME280;47013;42.664;23.242;2023-03-25T07:36:32;93655.44;;;14.55;54.45
61128;BME280;47013;42.664;23.242;2023-03-25T07:38:58;93649.66;;;14.65;53.72
61128;BME280;47013;42.664;23.242;2023-03-25T07:41:23;93644.63;;;14.77;53.46
61128;BME280;47013;42.664;23.242;2023-03-25T07:43:49;93651.13;;;15.04;53.87
61128;BME280;47013;42.664;23.242;2023-03-25T07:46:14;93642.25;;;15.26;52.85
61128;BME280;47013;42.664;23.242;2023-03-25T07:48:39;93638.88;;;15.44;51.49
61128;BME280;47013;42.664;23.242;2023-03-25T07:51:05;93641.88;;;15.58;51.54
61128;BME280;47013;42.664;23.242;2023-03-25T07:53:31;93638.13;;;15.78;51.65
61128;BME280;47013;42.664;23.242;2023-03-25T07:55:56;93629.31;;;15.83;51.27
61128;BME280;47013;42.664;23.242;2023-03-25T07:58:22;93635.34;;;16.00;50.44
61128;BME280;47013;42.664;23.242;2023-03-25T08:00:47;93630.91;;;16.24;50.55
61128;BME280;47013;42.664;23.242;2023-03-25T08:03:13;93619.72;;;16.31;49.37
61128;BME280;47013;42.664;23.242;2023-03-25T08:05:44;93624.91;;;16.38;49.46
61128;BME280;47013;42.664;23.242;2023-03-25T08:08:10;93619.34;;;16.60;48.85
61128;BME280;47013;42.664;23.242;2023-03-25T08:10:36;93614.44;;;16.86;49.02
61128;BME280;47013;42.664;23.242;2023-03-25T08:13:01;93614.03;;;17.06;47.72
61128;BME280;47013;42.664;23.242;2023-03-25T08:15:27;93618.75;;;17.24;47.89
61128;BME280;47013;42.664;23.242;2023-03-25T08:17:52;93614.50;;;17.41;47.02
61128;BME280;47013;42.664;23.242;2023-03-25T08:20:17;93611.16;;;17.37;45.79
61128;BME280;47013;42.664;23.242;2023-03-25T08:22:44;93610.25;;;17.40;46.30
61128;BME280;47013;42.664;23.242;2023-03-25T08:25:10;93603.41;;;17.35;46.79
61128;BME280;47013;42.664;23.242;2023-03-25T08:27:35;93603.06;;;17.43;46.79
61128;BME280;47013;42.664;23.242;2023-03-25T08:30:01;93618.78;;;17.51;46.21
61128;BME280;47013;42.664;23.242;2023-03-25T08:32:28;93606.41;;;17.56;46.56
61128;BME280;47013;42.664;23.242;2023-03-25T08:34:54;93603.53;;;17.68;46.16
61128;BME280;47013;42.664;23.242;2023-03-25T08:37:20;93602.78;;;17.40;46.24
61128;BME280;47013;42.664;23.242;2023-03-25T08:39:46;93601.41;;;17.63;46.69
61128;BME280;47013;42.664;23.242;2023-03-25T08:42:15;93591.66;;;17.62;46.66
61128;BME280;47013;42.664;23.242;2023-03-25T08:44:40;93594.22;;;17.66;46.84
61128;BME280;47013;42.664;23.242;2023-03-25T08:47:06;93594.38;;;17.81;46.41
61128;BME280;47013;42.664;23.242;2023-03-25T08:49:31;93592.91;;;17.34;46.55
61128;BME280;47013;42.664;23.242;2023-03-25T08:51:57;93589.53;;;17.48;46.76
61128;BME280;47013;42.664;23.242;2023-03-25T08:54:27;93595.16;;;17.63;46.19
61128;BME280;47013;42.664;23.242;2023-03-25T08:56:53;93591.19;;;17.82;45.71
61128;BME280;47013;42.664;23.242;2023-03-25T08:59:19;93587.53;;;17.85;45.39
61128;BME280;47013;42.664;23.242;2023-03-25T09:01:44;93587.66;;;18.00;44.54
61128;BME280;47013;42.664;23.242;2023-03-25T09:04:10;93584.56;;;18.16;44.64
61128;BME280;47013;42.664;23.242;2023-03-25T09:06:36;93578.38;;;18.40;43.93
61128;BME280;47013;42.664;23.242;2023-03-25T09:09:02;93580.72;;;18.65;43.96
61128;BME280;47013;42.664;23.242;2023-03-25T09:11:30;93571.75;;;18.89;43.29
61128;BME280;47013;42.664;23.242;2023-03-25T09:13:55;93573.19;;;19.23;43.29
61128;BME280;47013;42.664;23.242;2023-03-25T09:16:21;93566.47;;;19.38;42.32
61128;BME280;47013;42.664;23.242;2023-03-25T09:18:47;93559.72;;;19.78;41.92
61128;BME280;47013;42.664;23.242;2023-03-25T09:21:12;93557.94;;;19.90;39.97
61128;BME280;47013;42.664;23.242;2023-03-25T09:23:38;93570.38;;;20.00;40.14
61128;BME280;47013;42.664;23.242;2023-03-25T09:26:03;93565.81;;;19.97;40.29
61128;BME280;47013;42.664;23.242;2023-03-25T09:28:29;93567.91;;;19.87;39.64
61128;BME280;47013;42.664;23.242;2023-03-25T09:30:55;93564.13;;;19.85;39.90
61128;BME280;47013;42.664;23.242;2023-03-25T09:33:21;93561.44;;;20.05;40.18
61128;BME280;47013;42.664;23.242;2023-03-25T09:35:47;93564.03;;;19.94;39.38
61128;BME280;47013;42.664;23.242;2023-03-25T09:38:13;93565.13;;;20.17;39.47
61128;BME280;47013;42.664;23.242;2023-03-25T09:40:42;93561.16;;;20.18;39.08
61128;BME280;47013;42.664;23.242;2023-03-25T09:45:44;93557.75;;;20.73;37.45
61128;BME280;47013;42.664;23.242;2023-03-25T09:48:23;93556.16;;;20.66;37.56
61128;BME280;47013;42.664;23.242;2023-03-25T09:50:50;93557.13;;;20.63;38.47
61128;BME280;47013;42.664;23.242;2023-03-25T09:53:45;93548.38;;;20.65;38.69
61128;BME280;47013;42.664;23.242;2023-03-25T09:56:20;93548.00;;;20.57;36.69
61128;BME280;47013;42.664;23.242;2023-03-25T09:58:49;93543.28;;;20.57;37.40
61128;BME280;47013;42.664;23.242;2023-03-25T10:04:19;93546.16;;;20.48;37.16
61128;BME280;47013;42.664;23.242;2023-03-25T10:09:30;93538.38;;;20.32;37.09
61128;BME280;47013;42.664;23.242;2023-03-25T10:14:36;93531.03;;;20.44;36.18
61128;BME280;47013;42.664;23.242;2023-03-25T10:17:23;93520.31;;;20.46;36.22
61128;BME280;47013;42.664;23.242;2023-03-25T10:22:38;93511.22;;;20.25;36.10
61128;BME280;47013;42.664;23.242;2023-03-25T10:25:14;93502.00;;;20.28;36.71
61128;BME280;47013;42.664;23.242;2023-03-25T10:27:45;93503.41;;;20.38;36.28
61128;BME280;47013;42.664;23.242;2023-03-25T10:30:17;93505.66;;;20.54;36.12
61128;BME280;47013;42.664;23.242;2023-03-25T10:32:49;93500.25;;;20.80;35.14
61128;BME280;47013;42.664;23.242;2023-03-25T10:35:20;93494.25;;;21.02;34.86
61128;BME280;47013;42.664;23.242;2023-03-25T10:37:50;93491.69;;;21.19;34.72
61128;BME280;47013;42.664;23.242;2023-03-25T10:40:32;93483.97;;;21.23;34.58
61128;BME280;47013;42.664;23.242;2023-03-25T10:45:37;93482.16;;;21.20;35.40
61128;BME280;47013;42.664;23.242;2023-03-25T10:48:12;93476.16;;;21.21;35.71
61128;BME280;47013;42.664;23.242;2023-03-25T10:50:40;93481.91;;;21.18;36.37
61128;BME280;47013;42.664;23.242;2023-03-25T10:53:28;93469.31;;;21.11;36.88
61128;BME280;47013;42.664;23.242;2023-03-25T10:55:58;93473.94;;;21.46;35.92
61128;BME280;47013;42.664;23.242;2023-03-25T10:58:26;93458.31;;;21.63;35.86
61128;BME280;47013;42.664;23.242;2023-03-25T11:00:52;93453.59;;;21.69;35.05
61128;BME280;47013;42.664;23.242;2023-03-25T11:03:23;93454.06;;;21.62;34.56
61128;BME280;47013;42.664;23.242;2023-03-25T11:05:51;93456.53;;;21.92;34.44
61128;BME280;47013;42.664;23.242;2023-03-25T11:08:19;93446.91;;;22.50;33.96
61128;BME280;47013;42.664;23.242;2023-03-25T11:10:50;93450.91;;;22.92;33.29
61128;BME280;47013;42.664;23.242;2023-03-25T11:13:24;93454.75;;;23.17;32.71
61128;BME280;47013;42.664;23.242;2023-03-25T11:15:51;93432.91;;;23.24;32.23
61128;BME280;47013;42.664;23.242;2023-03-25T11:18:36;93434.47;;;22.77;32.33
61128;BME280;47013;42.664;23.242;2023-03-25T11:21:06;93430.81;;;22.49;32.98
61128;BME280;47013;42.664;23.242;2023-03-25T11:23:35;93428.88;;;22.60;32.99
61128;BME280;47013;42.664;23.242;2023-03-25T11:26:36;93433.72;;;22.77;31.27
61128;BME280;47013;42.664;23.242;2023-03-25T11:29:10;93427.66;;;22.67;31.30
61128;BME280;47013;42.664;23.242;2023-03-25T11:31:37;93426.91;;;22.72;31.58
61128;BME280;47013;42.664;23.242;2023-03-25T11:34:17;93408.47;;;22.52;31.42
61128;BME280;47013;42.664;23.242;2023-03-25T11:36:54;93413.97;;;22.41;31.79
61128;BME280;47013;42.664;23.242;2023-03-25T11:39:31;93413.16;;;22.35;30.64
61128;BME280;47013;42.664;23.242;2023-03-25T11:41:57;93408.31;;;22.19;30.18
61128;BME280;47013;42.664;23.242;2023-03-25T11:44:28;93401.41;;;22.03;30.49
61128;BME280;47013;42.664;23.242;2023-03-25T11:46:57;93398.59;;;21.97;31.29
61128;BME280;47013;42.664;23.242;2023-03-25T11:49:25;93394.75;;;21.84;30.39
61128;BME280;47013;42.664;23.242;2023-03-25T11:52:04;93389.84;;;21.62;30.77
61128;BME280;47013;42.664;23.242;2023-03-25T11:54:32;93391.56;;;21.59;31.64
61128;BME280;47013;42.664;23.242;2023-03-25T11:57:02;93397.47;;;21.46;31.69
61128;BME280;47013;42.664;23.242;2023-03-25T11:59:36;93382.66;;;21.18;31.96
61128;BME280;47013;42.664;23.242;2023-03-25T12:02:29;93387.28;;;21.06;32.24
61128;BME280;47013;42.664;23.242;2023-03-25T12:05:08;93385.09;;;20.84;33.14
61128;BME280;47013;42.664;23.242;2023-03-25T12:07:46;93381.94;;;20.71;32.83
61128;BME280;47013;42.664;23.242;2023-03-25T12:10:41;93377.19;;;20.51;32.81
61128;BME280;47013;42.664;23.242;2023-03-25T12:13:10;93385.94;;;20.50;33.31
61128;BME280;47013;42.664;23.242;2023-03-25T12:15:58;93383.44;;;20.31;33.70
61128;BME280;47013;42.664;23.242;2023-03-25T12:24:24;93391.19;;;20.13;33.48
61128;BME280;47013;42.664;23.242;2023-03-25T12:32:44;93394.72;;;20.33;33.82
61128;BME280;47013;42.664;23.242;2023-03-25T12:41:04;93387.97;;;20.35;33.11
61128;BME280;47013;42.664;23.242;2023-03-25T12:43:50;93388.78;;;20.20;33.17
61128;BME280;47013;42.664;23.242;2023-03-25T12:46:28;93375.03;;;20.20;33.33
61128;BME280;47013;42.664;23.242;2023-03-25T12:49:02;93379.09;;;20.25;33.77
61128;BME280;47013;42.664;23.242;2023-03-25T12:59:34;93381.09;;;19.89;33.47
61128;BME280;47013;42.664;23.242;2023-03-25T13:02:48;93387.31;;;19.69;33.61
61128;BME280;47013;42.664;23.242;2023-03-25T13:05:26;93381.25;;;19.65;33.93
61128;BME280;47013;42.664;23.242;2023-03-25T13:11:10;93376.78;;;19.38;35.44
61128;BME280;47013;42.664;23.242;2023-03-25T13:13:38;93378.03;;;19.37;36.34
61128;BME280;47013;42.664;23.242;2023-03-25T13:16:08;93377.97;;;19.17;36.38
61128;BME280;47013;42.664;23.242;2023-03-25T13:23:31;93385.81;;;18.95;37.80
61128;BME280;47013;42.664;23.242;2023-03-25T13:28:47;93390.53;;;18.94;39.90
61128;BME280;47013;42.664;23.242;2023-03-25T13:31:18;93387.09;;;18.84;39.80
61128;BME280;47013;42.664;23.242;2023-03-25T13:33:52;93385.50;;;18.78;38.98
61128;BME280;47013;42.664;23.242;2023-03-25T13:36:28;93392.00;;;18.66;41.15
61128;BME280;47013;42.664;23.242;2023-03-25T13:41:55;93413.72;;;18.31;39.85
61128;BME280;47013;42.664;23.242;2023-03-25T13:44:37;93426.41;;;18.04;45.92
61128;BME280;47013;42.664;23.242;2023-03-25T13:47:18;93426.50;;;17.86;48.11
61128;BME280;47013;42.664;23.242;2023-03-25T13:49:49;93436.94;;;17.54;49.10
61128;BME280;47013;42.664;23.242;2023-03-25T13:52:17;93446.63;;;17.13;51.11
61128;BME280;47013;42.664;23.242;2023-03-25T13:54:53;93446.97;;;16.97;51.29
61128;BME280;47013;42.664;23.242;2023-03-25T14:05:53;93445.06;;;16.20;56.08
61128;BME280;47013;42.664;23.242;2023-03-25T14:08:30;93437.31;;;16.19;58.86
61128;BME280;47013;42.664;23.242;2023-03-25T14:13:54;93447.19;;;15.14;64.55
61128;BME280;47013;42.664;23.242;2023-03-25T14:16:25;93440.91;;;14.83;66.05
61128;BME280;47013;42.664;23.242;2023-03-25T14:18:58;93435.00;;;14.62;67.42
61128;BME280;47013;42.664;23.242;2023-03-25T14:26:34;93432.50;;;14.55;70.42
61128;BME280;47013;42.664;23.242;2023-03-25T14:29:08;93425.34;;;14.49;72.25
61128;BME280;47013;42.664;23.242;2023-03-25T14:31:35;93408.06;;;14.17;76.25
61128;BME280;47013;42.664;23.242;2023-03-25T14:36:31;93356.84;;;13.65;86.79
61128;BME280;47013;42.664;23.242;2023-03-25T14:41:56;93344.78;;;13.27;88.91
61128;BME280;47013;42.664;23.242;2023-03-25T14:44:23;93342.41;;;13.30;82.15
61128;BME280;47013;42.664;23.242;2023-03-25T14:46:59;93347.59;;;13.49;80.07
61128;BME280;47013;42.664;23.242;2023-03-25T14:52:46;93338.16;;;13.88;86.14
61128;BME280;47013;42.664;23.242;2023-03-25T14:55:30;93324.34;;;14.05;82.13
61128;BME280;47013;42.664;23.242;2023-03-25T15:00:52;93333.41;;;14.36;80.20
61128;BME280;47013;42.664;23.242;2023-03-25T15:03:18;93332.91;;;14.51;81.19
61128;BME280;47013;42.664;23.242;2023-03-25T15:05:52;93329.53;;;14.68;83.21
61128;BME280;47013;42.664;23.242;2023-03-25T15:08:25;93329.91;;;14.80;83.00